createdAt,value
2022-11-28T00:01:27.795Z,24.40
2022-11-28T00:03:54.994Z,24.33
2022-11-28T00:06:22.754Z,27.73
2022-11-28T00:08:50.004Z,26.20
2022-11-28T00:11:17.739Z,27.35
2022-11-28T00:13:45.484Z,26.27
2022-11-28T00:16:17.338Z,26.25
2022-11-28T00:18:44.802Z,28.65
2022-11-28T00:21:13.242Z,30.52
2022-11-28T00:23:40.842Z,29.95
2022-11-28T00:26:18.945Z,29.05
2022-11-28T00:28:46.430Z,29.25
2022-11-28T00:31:14.946Z,29.15
2022-11-28T00:33:42.471Z,28.75
2022-11-28T00:36:10.966Z,29.67
2022-11-28T00:38:38.253Z,31.92
2022-11-28T00:41:15.648Z,30.00
2022-11-28T00:43:43.924Z,29.73
2022-11-28T00:46:12.467Z,30.65
2022-11-28T00:48:39.967Z,31.40
2022-11-28T00:51:10.929Z,32.60
2022-11-28T00:53:38.129Z,31.00
2022-11-28T00:56:06.092Z,30.77
2022-11-28T00:58:34.211Z,31.17
2022-11-28T01:01:01.816Z,30.83
2022-11-28T01:03:29.054Z,30.60
2022-11-28T01:05:56.175Z,32.28
2022-11-28T01:08:23.252Z,30.95
2022-11-28T01:10:50.348Z,31.20
2022-11-28T01:13:17.520Z,30.88
2022-11-28T01:15:44.906Z,29.30
2022-11-28T01:18:12.003Z,27.70
2022-11-28T01:20:39.100Z,27.13
2022-11-28T01:23:06.156Z,26.35
2022-11-28T01:25:33.456Z,25.48
2022-11-28T01:28:00.527Z,24.80
2022-11-28T01:30:27.816Z,24.05
2022-11-28T01:32:55.335Z,30.52
2022-11-28T01:35:23.724Z,33.75
2022-11-28T01:37:50.872Z,33.30
2022-11-28T01:40:17.962Z,28.35
2022-11-28T01:42:45.076Z,28.30
2022-11-28T01:45:31.934Z,33.15
2022-11-28T01:48:00.939Z,30.33
2022-11-28T01:50:28.941Z,26.25
2022-11-28T01:52:57.656Z,33.03
2022-11-28T01:55:27.222Z,33.75
2022-11-28T01:57:55.187Z,32.92
2022-11-28T02:00:22.749Z,32.38
2022-11-28T02:03:09.434Z,32.75
2022-11-28T02:05:36.893Z,34.47
2022-11-28T02:08:04.121Z,32.22
2022-11-28T02:10:37.297Z,32.22
2022-11-28T02:13:22.885Z,32.42
2022-11-28T02:15:53.018Z,32.58
2022-11-28T02:18:40.406Z,31.77
2022-11-28T02:21:18.879Z,31.30
2022-11-28T02:24:05.863Z,29.10
2022-11-28T02:26:42.370Z,33.15
2022-11-28T02:29:09.537Z,32.22
2022-11-28T02:31:55.195Z,33.55
2022-11-28T02:34:28.171Z,30.23
2022-11-28T02:37:01.498Z,31.65
2022-11-28T02:39:31.645Z,32.38
2022-11-28T02:42:34.121Z,30.98
2022-11-28T02:45:10.880Z,25.48
2022-11-28T02:47:40.007Z,23.42
2022-11-28T02:50:33.172Z,28.67
2022-11-28T02:53:03.481Z,31.02
2022-11-28T02:55:31.524Z,30.25
2022-11-28T02:57:58.598Z,23.45
2022-11-28T03:00:29.069Z,26.65
2022-11-28T03:03:16.559Z,25.02
2022-11-28T03:05:50.418Z,19.17
2022-11-28T03:08:35.656Z,26.20
2022-11-28T03:11:14.555Z,18.85
2022-11-28T03:13:44.832Z,20.20
2022-11-28T03:16:11.952Z,17.40
2022-11-28T03:18:40.520Z,17.50
2022-11-28T03:21:13.311Z,17.52
2022-11-28T03:23:52.811Z,15.32
2022-11-28T03:26:27.982Z,15.15
2022-11-28T03:29:01.154Z,15.43
2022-11-28T03:31:34.837Z,20.48
2022-11-28T03:34:02.626Z,15.98
2022-11-28T03:36:39.087Z,15.20
2022-11-28T03:39:09.175Z,17.08
2022-11-28T03:41:41.314Z,15.75
2022-11-28T03:44:11.465Z,17.08
2022-11-28T03:46:42.218Z,16.70
2022-11-28T03:49:10.781Z,16.83
2022-11-28T03:51:41.158Z,16.77
2022-11-28T03:54:14.429Z,16.05
2022-11-28T03:56:41.702Z,17.08
2022-11-28T03:59:17.466Z,19.35
2022-11-28T04:01:49.978Z,20.33
2022-11-28T04:04:17.215Z,21.73
2022-11-28T04:07:07.797Z,21.30
2022-11-28T04:09:38.275Z,24.13
2022-11-28T04:12:09.772Z,22.02
2022-11-28T04:14:47.276Z,21.30
2022-11-28T04:17:18.329Z,22.38
2022-11-28T04:19:54.169Z,22.38
2022-11-28T04:22:24.320Z,20.10
2022-11-28T04:24:54.939Z,18.35
2022-11-28T04:27:25.137Z,19.23
2022-11-28T04:29:55.196Z,19.00
2022-11-28T04:32:25.272Z,19.70
2022-11-28T04:34:59.957Z,18.42
2022-11-28T04:37:28.646Z,19.27
2022-11-28T04:39:56.548Z,21.50
2022-11-28T04:42:37.971Z,20.40
2022-11-28T04:45:13.965Z,18.52
2022-11-28T04:47:41.495Z,19.45
2022-11-28T04:50:08.923Z,19.52
2022-11-28T04:52:54.866Z,19.98
2022-11-28T04:55:31.005Z,17.90
2022-11-28T04:58:16.458Z,17.95
2022-11-28T05:00:44.634Z,17.30
2022-11-28T05:03:12.345Z,17.50
2022-11-28T05:05:44.087Z,16.80
2022-11-28T05:08:11.719Z,15.98
2022-11-28T05:10:38.896Z,15.07
2022-11-28T05:13:06.098Z,16.50
2022-11-28T05:15:33.392Z,15.00
2022-11-28T05:18:00.621Z,14.15
2022-11-28T05:20:28.269Z,13.80
2022-11-28T05:22:56.980Z,15.18
2022-11-28T05:25:25.263Z,14.43
2022-11-28T05:27:54.816Z,15.00
2022-11-28T05:30:21.863Z,14.00
2022-11-28T05:32:49.093Z,14.88
2022-11-28T05:35:16.329Z,15.15
2022-11-28T05:37:43.540Z,15.35
2022-11-28T05:40:10.861Z,17.02
2022-11-28T05:42:38.024Z,17.85
2022-11-28T05:45:05.883Z,17.05
2022-11-28T05:47:33.653Z,17.45
2022-11-28T05:50:00.845Z,17.73
2022-11-28T05:52:30.023Z,19.70
2022-11-28T05:54:57.210Z,18.23
2022-11-28T05:57:24.766Z,18.05
2022-11-28T05:59:51.913Z,18.30
2022-11-28T06:02:19.023Z,18.02
2022-11-28T06:04:46.345Z,18.00
2022-11-28T06:07:13.723Z,20.25
2022-11-28T06:09:41.165Z,19.58
2022-11-28T06:12:08.840Z,23.52
2022-11-28T06:14:36.001Z,25.15
2022-11-28T06:17:03.148Z,25.33
2022-11-28T06:19:31.364Z,26.67
2022-11-28T06:21:58.495Z,24.27
2022-11-28T06:24:25.977Z,23.48
2022-11-28T06:26:53.599Z,23.20
2022-11-28T06:29:21.543Z,27.85
2022-11-28T06:31:48.873Z,24.73
2022-11-28T06:34:16.638Z,21.88
2022-11-28T06:36:44.832Z,26.55
2022-11-28T06:39:15.877Z,26.08
2022-11-28T06:41:43.650Z,27.75
2022-11-28T06:44:13.605Z,27.63
2022-11-28T06:46:41.542Z,26.77
2022-11-28T06:49:10.463Z,27.25
2022-11-28T06:51:37.604Z,27.58
2022-11-28T06:54:04.921Z,25.30
2022-11-28T06:56:32.439Z,23.30
2022-11-28T06:59:00.052Z,22.60
2022-11-28T07:01:29.801Z,21.45
2022-11-28T07:03:57.430Z,18.60
2022-11-28T07:06:26.094Z,19.35
2022-11-28T07:08:54.109Z,18.45
2022-11-28T07:11:22.438Z,20.20
2022-11-28T07:13:50.129Z,19.20
2022-11-28T07:16:19.588Z,19.45
2022-11-28T07:18:46.973Z,20.42
2022-11-28T07:21:14.976Z,22.35
2022-11-28T07:23:43.070Z,21.85
2022-11-28T07:26:11.023Z,21.85
2022-11-28T07:28:38.170Z,22.45
2022-11-28T07:31:08.673Z,23.75
2022-11-28T07:33:35.819Z,23.40
2022-11-28T07:36:06.151Z,24.80
2022-11-28T07:38:33.694Z,25.40
2022-11-28T07:41:07.958Z,24.30
2022-11-28T07:43:37.482Z,23.13
2022-11-28T07:46:05.696Z,24.17
2022-11-28T07:48:32.888Z,26.63
2022-11-28T07:51:00.214Z,24.55
2022-11-28T07:53:27.363Z,24.60
2022-11-28T07:55:55.584Z,29.15
2022-11-28T07:58:22.764Z,30.70
2022-11-28T08:00:51.173Z,32.25
2022-11-28T08:03:18.320Z,30.60
2022-11-28T08:05:49.819Z,30.73
2022-11-28T08:08:17.666Z,30.05
2022-11-28T08:10:46.442Z,26.35
2022-11-28T08:13:14.083Z,26.55
2022-11-28T08:15:41.481Z,27.80
2022-11-28T08:18:08.913Z,27.08
2022-11-28T08:20:37.052Z,26.48
2022-11-28T08:23:04.327Z,26.50
2022-11-28T08:25:31.470Z,25.63
2022-11-28T08:27:58.563Z,26.58
2022-11-28T08:30:26.108Z,24.90
2022-11-28T08:32:54.018Z,27.08
2022-11-28T08:35:21.508Z,24.05
2022-11-28T08:37:48.781Z,23.88
2022-11-28T08:40:18.971Z,26.33
2022-11-28T08:42:46.221Z,25.05
2022-11-28T08:45:13.393Z,24.35
2022-11-28T08:47:41.477Z,27.70
2022-11-28T08:50:08.629Z,25.35
2022-11-28T08:52:37.057Z,25.63
2022-11-28T08:55:04.358Z,25.42
2022-11-28T08:57:31.522Z,22.13
2022-11-28T08:59:58.815Z,23.13
2022-11-28T09:02:26.301Z,26.20
2022-11-28T09:04:53.426Z,26.77
2022-11-28T09:07:20.526Z,27.88
2022-11-28T09:09:48.159Z,30.17
2022-11-28T09:12:16.459Z,30.48
2022-11-28T09:14:43.638Z,30.13
2022-11-28T09:17:11.160Z,29.20
2022-11-28T09:19:38.507Z,26.48
2022-11-28T09:22:07.185Z,25.35
2022-11-28T09:24:35.402Z,26.98
2022-11-28T09:27:02.949Z,26.33
2022-11-28T09:29:30.183Z,26.35
2022-11-28T09:31:57.390Z,26.85
2022-11-28T09:34:24.495Z,26.02
2022-11-28T09:36:51.714Z,31.25
2022-11-28T09:39:18.889Z,31.38
2022-11-28T09:41:52.251Z,28.17
2022-11-28T09:44:29.377Z,29.05
2022-11-28T09:46:58.814Z,27.95
2022-11-28T09:49:32.972Z,23.75
2022-11-28T09:52:06.625Z,20.98
2022-11-28T09:54:36.977Z,17.42
2022-11-28T09:57:04.925Z,16.65
2022-11-28T09:59:32.298Z,14.90
2022-11-28T10:01:59.557Z,15.18
2022-11-28T10:04:28.953Z,12.95
2022-11-28T10:07:14.689Z,13.88
2022-11-28T10:09:42.183Z,14.57
2022-11-28T10:12:25.033Z,15.77
2022-11-28T10:15:01.430Z,16.50
2022-11-28T10:17:35.175Z,14.95
2022-11-28T10:20:05.833Z,15.20
2022-11-28T10:22:40.295Z,14.05
2022-11-28T10:25:14.575Z,15.55
2022-11-28T10:27:41.698Z,13.43
2022-11-28T10:30:18.450Z,11.02
2022-11-28T10:32:48.215Z,11.38
2022-11-28T10:35:36.219Z,11.65
2022-11-28T10:38:07.378Z,10.55
2022-11-28T10:40:39.288Z,8.27
2022-11-28T10:43:26.639Z,9.85
2022-11-28T10:45:53.910Z,9.95
2022-11-28T10:51:20.230Z,9.82
2022-11-28T10:53:51.669Z,9.52
2022-11-28T10:56:35.602Z,9.70
2022-11-28T10:59:13.280Z,8.77
2022-11-28T11:01:45.861Z,9.98
2022-11-28T11:04:21.928Z,8.10
2022-11-28T11:07:09.158Z,8.50
2022-11-28T11:09:40.182Z,7.18
2022-11-28T11:12:10.688Z,6.70
2022-11-28T11:14:40.200Z,5.88
2022-11-28T11:17:09.309Z,5.82
2022-11-28T11:19:38.045Z,6.18
2022-11-28T11:22:34.641Z,5.70
2022-11-28T11:27:28.837Z,6.07
2022-11-28T11:29:56.208Z,6.47
2022-11-28T11:32:30.577Z,5.03
2022-11-28T11:34:58.825Z,4.60
2022-11-28T11:37:29.035Z,4.75
2022-11-28T11:39:56.278Z,4.20
2022-11-28T11:42:25.799Z,4.43
2022-11-28T11:44:53.323Z,4.28
2022-11-28T11:47:20.499Z,4.22
2022-11-28T11:49:49.593Z,4.30
2022-11-28T11:52:26.703Z,5.85
2022-11-28T11:54:58.684Z,4.15
2022-11-28T11:57:35.048Z,5.28
2022-11-28T12:00:15.507Z,5.93
2022-11-28T12:03:05.710Z,6.07
2022-11-28T12:05:59.041Z,6.85
2022-11-28T12:08:27.817Z,5.90
2022-11-28T12:11:08.222Z,5.53
2022-11-28T12:13:35.339Z,5.60
2022-11-28T12:16:27.586Z,4.97
2022-11-28T12:18:57.691Z,5.60
2022-11-28T12:21:38.902Z,5.65
2022-11-28T12:24:10.619Z,5.75
2022-11-28T12:26:56.603Z,5.38
2022-11-28T12:29:34.476Z,5.70
2022-11-28T12:32:20.469Z,5.45
2022-11-28T12:34:56.087Z,6.65
2022-11-28T12:38:02.747Z,6.20
2022-11-28T12:40:36.171Z,6.45
2022-11-28T12:43:19.251Z,5.65
2022-11-28T12:45:59.991Z,5.90
2022-11-28T12:48:41.564Z,5.32
2022-11-28T12:51:14.718Z,5.28
2022-11-28T12:53:42.204Z,5.45
2022-11-28T12:56:17.128Z,5.57
2022-11-28T12:58:47.353Z,5.20
2022-11-28T13:01:20.280Z,6.07
2022-11-28T13:04:05.874Z,5.07
2022-11-28T13:06:47.992Z,5.55
2022-11-28T13:09:15.200Z,5.80
2022-11-28T13:11:42.414Z,4.53
2022-11-28T13:14:12.705Z,5.30
2022-11-28T13:16:48.226Z,4.95
2022-11-28T13:19:16.050Z,5.00
2022-11-28T13:21:43.199Z,5.30
2022-11-28T13:24:30.719Z,5.22
2022-11-28T13:27:00.444Z,6.05
2022-11-28T13:29:46.576Z,7.10
2022-11-28T13:32:20.021Z,5.35
2022-11-28T13:34:47.842Z,5.25
2022-11-28T13:40:06.035Z,4.82
2022-11-28T13:43:02.966Z,4.50
2022-11-28T13:45:33.489Z,4.13
2022-11-28T13:48:22.701Z,5.13
2022-11-28T13:51:28.698Z,21.52
2022-11-28T13:54:18.367Z,5.47
2022-11-28T13:56:46.368Z,6.30
2022-11-28T13:59:25.370Z,5.53
2022-11-28T14:01:56.501Z,5.63
2022-11-28T14:04:24.530Z,5.00
2022-11-28T14:06:59.233Z,4.43
2022-11-28T14:09:44.897Z,5.30
2022-11-28T14:12:31.575Z,5.55
2022-11-28T14:15:10.944Z,4.35
2022-11-28T14:17:47.361Z,4.60
2022-11-28T14:20:29.082Z,4.90
2022-11-28T14:23:13.536Z,5.25
2022-11-28T14:25:42.644Z,6.85
2022-11-28T14:28:24.215Z,7.85
2022-11-28T14:30:51.924Z,7.45
2022-11-28T14:33:26.350Z,6.70
2022-11-28T14:35:53.598Z,7.00
2022-11-28T14:38:36.703Z,31.35
2022-11-28T14:41:15.362Z,10.77
2022-11-28T14:43:47.404Z,7.30
2022-11-28T14:46:28.721Z,7.22
2022-11-28T14:49:00.596Z,6.82
2022-11-28T14:51:46.283Z,6.25
2022-11-28T14:54:22.995Z,5.28
2022-11-28T14:56:55.204Z,5.40
2022-11-28T14:59:33.457Z,5.30
2022-11-28T15:02:13.186Z,6.18
2022-11-28T15:05:00.296Z,5.50
2022-11-28T15:10:07.531Z,6.07
2022-11-28T15:12:41.318Z,7.00
2022-11-28T15:15:13.031Z,7.07
2022-11-28T15:17:41.873Z,7.40
2022-11-28T15:20:14.138Z,6.60
2022-11-28T15:22:43.002Z,6.47
2022-11-28T15:25:19.338Z,6.22
2022-11-28T15:27:46.587Z,6.47
2022-11-28T15:30:17.030Z,7.40
2022-11-28T15:32:44.390Z,7.22
2022-11-28T15:35:16.153Z,7.75
2022-11-28T15:37:49.816Z,8.25
2022-11-28T15:40:21.427Z,7.60
2022-11-28T15:42:49.586Z,7.07
2022-11-28T15:45:22.218Z,7.90
2022-11-28T15:47:50.598Z,6.78
2022-11-28T15:50:20.259Z,6.72
2022-11-28T15:53:05.240Z,6.22
2022-11-28T15:55:34.009Z,6.20
2022-11-28T15:58:30.295Z,7.32
2022-11-28T16:01:00.674Z,6.78
2022-11-28T16:03:29.513Z,5.80
2022-11-28T16:05:58.397Z,6.18
2022-11-28T16:08:28.696Z,5.68
2022-11-28T16:10:56.848Z,6.18
2022-11-28T16:13:25.185Z,6.07
2022-11-28T16:15:53.477Z,5.70
2022-11-28T16:18:20.699Z,6.47
2022-11-28T16:20:48.092Z,6.72
2022-11-28T16:23:42.219Z,6.82
2022-11-28T16:26:18.590Z,5.80
2022-11-28T16:28:55.424Z,6.13
2022-11-28T16:31:25.198Z,6.22
2022-11-28T16:33:52.584Z,6.35
2022-11-28T16:36:34.325Z,5.10
2022-11-28T16:39:10.544Z,5.30
2022-11-28T16:41:49.401Z,5.10
2022-11-28T16:44:19.198Z,5.43
2022-11-28T16:46:49.355Z,6.18
2022-11-28T16:49:37.260Z,6.10
2022-11-28T16:52:34.039Z,8.38
2022-11-28T16:57:45.587Z,7.65
2022-11-28T17:00:13.058Z,7.20
2022-11-28T17:02:40.134Z,7.55
2022-11-28T17:05:07.404Z,6.85
2022-11-28T17:07:34.742Z,7.45
2022-11-28T17:10:02.072Z,7.40
2022-11-28T17:12:29.244Z,6.80
2022-11-28T17:14:58.497Z,6.55
2022-11-28T17:17:25.693Z,16.10
2022-11-28T17:19:52.763Z,7.95
2022-11-28T17:22:26.310Z,7.15
2022-11-28T17:24:56.092Z,8.68
2022-11-28T17:27:23.249Z,10.90
2022-11-28T17:29:50.380Z,9.60
2022-11-28T17:32:17.583Z,10.25
2022-11-28T17:34:46.394Z,10.82
2022-11-28T17:37:14.148Z,11.35
2022-11-28T17:40:01.371Z,11.07
2022-11-28T17:42:28.620Z,10.10
2022-11-28T17:44:55.781Z,11.00
2022-11-28T17:47:24.190Z,11.65
2022-11-28T17:49:51.847Z,12.43
2022-11-28T17:52:20.318Z,12.82
2022-11-28T17:54:47.625Z,13.10
2022-11-28T17:57:14.913Z,12.48
2022-11-28T17:59:42.332Z,13.25
2022-11-28T18:02:11.242Z,12.98
2022-11-28T18:04:38.592Z,13.50
2022-11-28T18:07:05.906Z,14.90
2022-11-28T18:09:33.179Z,20.45
2022-11-28T18:12:00.845Z,21.98
2022-11-28T18:14:28.453Z,21.50
2022-11-28T18:16:58.725Z,24.00
2022-11-28T18:19:27.713Z,44.13
2022-11-28T18:21:55.468Z,33.28
2022-11-28T18:24:22.733Z,34.38
2022-11-28T18:26:49.969Z,29.85
2022-11-28T18:29:17.341Z,34.78
2022-11-28T18:31:47.524Z,33.88
2022-11-28T18:34:17.089Z,33.92
2022-11-28T18:36:45.417Z,30.60
2022-11-28T18:39:13.598Z,25.60
2022-11-28T18:41:41.194Z,24.92
2022-11-28T18:44:08.480Z,28.10
2022-11-28T18:46:36.329Z,25.35
2022-11-28T18:49:03.822Z,26.95
2022-11-28T18:51:35.076Z,20.73
2022-11-28T18:54:03.960Z,22.88
2022-11-28T18:56:31.777Z,20.52
2022-11-28T18:58:59.526Z,40.92
2022-11-28T19:01:29.387Z,41.17
2022-11-28T19:03:57.815Z,45.80
2022-11-28T19:06:25.319Z,38.95
2022-11-28T19:08:53.811Z,38.72
2022-11-28T19:11:21.560Z,45.53
2022-11-28T19:13:48.923Z,48.35
2022-11-28T19:16:17.829Z,45.10
2022-11-28T19:18:46.184Z,43.83
2022-11-28T19:21:14.758Z,39.95
2022-11-28T19:23:42.719Z,41.13
2022-11-28T19:26:13.473Z,69.15
2022-11-28T19:28:41.267Z,54.13
2022-11-28T19:31:13.291Z,50.63
2022-11-28T19:33:40.653Z,58.38
2022-11-28T19:36:09.267Z,52.55
2022-11-28T19:38:37.284Z,52.65
2022-11-28T19:41:12.422Z,19.58
2022-11-28T19:46:08.278Z,38.13
2022-11-28T19:48:36.563Z,44.55
2022-11-28T19:51:04.584Z,39.60
2022-11-28T19:53:32.482Z,41.95
2022-11-28T19:56:06.965Z,40.70
2022-11-28T19:58:35.817Z,40.53
2022-11-28T20:01:04.429Z,39.08
2022-11-28T20:03:33.174Z,38.97
2022-11-28T20:06:00.787Z,41.75
2022-11-28T20:08:28.941Z,42.05
2022-11-28T20:10:56.400Z,40.13
2022-11-28T20:13:23.754Z,43.10
2022-11-28T20:15:50.972Z,43.45
2022-11-28T20:18:18.680Z,43.42
2022-11-28T20:20:46.177Z,44.60
2022-11-28T20:23:14.440Z,42.75
2022-11-28T20:25:41.556Z,46.22
2022-11-28T20:28:08.904Z,46.28
2022-11-28T20:30:36.800Z,44.47
2022-11-28T20:33:04.015Z,47.50
2022-11-28T20:35:31.407Z,47.53
2022-11-28T20:37:58.585Z,47.30
2022-11-28T20:40:25.748Z,49.33
2022-11-28T20:42:52.919Z,53.03
2022-11-28T20:45:20.090Z,52.25
2022-11-28T20:47:49.989Z,53.05
2022-11-28T20:50:17.338Z,53.28
2022-11-28T20:52:44.563Z,54.67
2022-11-28T20:55:11.837Z,55.03
2022-11-28T20:57:39.018Z,53.92
2022-11-28T21:00:06.526Z,56.10
2022-11-28T21:02:33.992Z,55.72
2022-11-28T21:05:01.215Z,56.28
2022-11-28T21:07:28.631Z,59.85
2022-11-28T21:10:00.176Z,64.70
2022-11-28T21:12:27.511Z,71.47
2022-11-28T21:14:55.068Z,73.80
2022-11-28T21:17:22.329Z,66.47
2022-11-28T21:19:49.377Z,64.55
2022-11-28T21:22:16.557Z,69.90
2022-11-28T21:24:45.155Z,61.92
2022-11-28T21:27:12.612Z,62.78
2022-11-28T21:29:39.922Z,60.75
2022-11-28T21:32:08.647Z,58.63
2022-11-28T21:34:35.894Z,77.15
2022-11-28T21:37:03.131Z,68.70
2022-11-28T21:39:30.212Z,50.00
2022-11-28T21:41:57.300Z,46.20
2022-11-28T21:44:24.499Z,47.00
2022-11-28T21:46:51.853Z,44.08
2022-11-28T21:49:19.338Z,41.00
2022-11-28T21:51:46.451Z,45.90
2022-11-28T21:54:13.615Z,44.97
2022-11-28T21:56:41.078Z,44.67
2022-11-28T21:59:08.202Z,41.33
2022-11-28T22:01:35.437Z,39.72
2022-11-28T22:04:03.563Z,37.97
2022-11-28T22:06:31.748Z,39.22
2022-11-28T22:09:03.305Z,37.92
2022-11-28T22:11:34.855Z,33.97
2022-11-28T22:14:03.243Z,33.95
2022-11-28T22:16:30.637Z,32.90
2022-11-28T22:19:00.346Z,29.83
2022-11-28T22:24:14.982Z,27.50
2022-11-28T22:26:43.867Z,28.80
2022-11-28T22:29:11.757Z,28.90
2022-11-28T22:31:39.020Z,28.33
2022-11-28T22:34:06.212Z,28.15
2022-11-28T22:36:34.634Z,26.40
2022-11-28T22:39:04.028Z,24.77
2022-11-28T22:41:31.434Z,25.98
2022-11-28T22:44:01.102Z,26.75
2022-11-28T22:46:30.396Z,28.40
2022-11-28T22:49:02.256Z,26.95
2022-11-28T22:51:30.946Z,27.42
2022-11-28T22:53:59.742Z,27.63
2022-11-28T22:56:28.325Z,28.98
2022-11-28T22:58:55.785Z,29.35
2022-11-28T23:01:25.541Z,30.15
2022-11-28T23:03:53.756Z,95.88
2022-11-28T23:06:24.396Z,32.08
2022-11-28T23:08:55.946Z,30.08
2022-11-28T23:11:26.998Z,30.13
2022-11-28T23:13:54.721Z,34.80
2022-11-28T23:16:23.648Z,35.30
2022-11-28T23:18:53.964Z,26.40
2022-11-28T23:21:22.150Z,31.10
2022-11-28T23:23:49.693Z,28.83
2022-11-28T23:26:18.690Z,28.05
2022-11-28T23:28:46.107Z,31.33
2022-11-28T23:31:20.892Z,24.40
2022-11-28T23:33:48.693Z,29.20
2022-11-28T23:36:20.244Z,21.98
2022-11-28T23:38:48.853Z,19.85
2022-11-28T23:41:16.460Z,18.63
2022-11-28T23:43:43.806Z,17.75
2022-11-28T23:46:11.606Z,24.63
2022-11-28T23:48:39.145Z,26.65
2022-11-28T23:51:07.116Z,29.02
2022-11-28T23:53:34.837Z,28.77
2022-11-28T23:56:02.892Z,26.00
2022-11-28T23:58:30.171Z,25.63
